Latest Weather Observations for Falls Creek

IDV60801

Issued at 4:03 am EDT Sunday 21 October 2018 (issued every 10 minutes, with the page automatically refreshed every 10 minutes)

About weather observations | Map of weather stations | Latest weather observations for VIC | Other Formats
Station Details ID: 083084 Name: FALLS CREEK Lat: -36.87 Lon: 147.28 Height: 1765.0 m
Data from the previous 72 hours. | See also: Recent months at Falls Creek
Date/Time
EDT
Temp
°C
App
Temp
°C
Dew
Point
°C
Rel
Hum
%
Delta-T
°C
Wind Press
QNH
hPa
Press
MSL
hPa
Rain since
9am
mm
Dir  Spd
km/h
Gust
km/h
Spd
kts
Gust
kts
20/01:00pm 9.9 6.0 9.6 98 0.2 NNW 20 44 11 24 1013.3 1010.9 0.0
20/12:35pm 11.1 6.0 10.5 96 0.3 NNW 28 48 15 26 1013.9 1011.5 0.0
20/12:30pm 10.4 5.4 9.6 95 0.4 NNW 26 48 14 26 1013.8 1011.4 0.0
20/12:00pm 10.1 3.8 8.9 92 0.7 NNW 32 46 17 25 1014.0 1011.6 0.0
20/11:30am 11.0 4.7 9.1 88 1.0 NNW 32 52 17 28 1013.6 1011.1 0.0
20/11:26am 10.9 6.9 9.2 89 0.9 NNW 20 50 11 27 1013.6 1011.1 0.0
20/11:00am 9.2 5.2 9.1 99 0.1 N 20 37 11 20 1014.6 1012.3 0.0
20/10:30am 8.4 1.9 8.0 97 0.2 NNW 32 63 17 34 1015.8 1013.5 0.0
20/10:26am 9.6 6.6 9.3 98 0.2 NNW 15 46 8 25 1015.9 1013.6 0.0
20/10:00am 11.1 7.3 9.0 87 1.2 NNW 19 43 10 23 1015.4 1013.0 0.0
20/09:51am 11.4 9.5 9.1 86 1.3 N 9 43 5 23 1015.1 1012.7 0.0
20/09:30am 10.4 10.3 9.5 94 0.5 CALM 0 24 0 13 1015.1 1012.7 0.0
20/09:00am 11.0 4.6 8.4 84 1.4 NNW 32 50 17 27 1015.5 1013.1 0.0
20/08:59am 11.0 4.6 8.4 84 1.4 NNW 32 50 17 27 1015.5 1013.1 0.0
20/08:30am 11.2 5.1 8.1 81 1.7 NNW 30 43 16 23 1015.0 1012.6 0.0
20/08:00am 9.5 2.3 7.8 89 0.9 NNW 35 50 19 27 1015.1 1012.7 0.0
20/07:31am 11.0 2.1 5.1 67 3.0 NNW 41 59 22 32 1014.0 1011.6 0.0
20/07:30am 10.9 2.0 5.0 67 3.0 NNW 41 57 22 31 1014.2 1011.8 0.0
20/07:29am 10.8 1.9 5.1 68 2.9 NNW 41 57 22 31 1014.0 1011.6 0.0
20/07:00am 9.6 3.6 5.2 74 2.2 NNW 26 39 14 21 1014.5 1012.1 0.0
20/06:30am 9.0 1.6 4.8 75 2.1 NNW 33 52 18 28 1015.4 1013.0 0.0
20/06:00am 9.4 -0.2 4.6 72 2.4 NNW 44 67 24 36 1015.0 1012.6 0.0
20/05:30am 11.1 1.8 3.2 58 3.8 NNW 41 61 22 33 1014.2 1011.8 0.0
20/05:07am 11.0 1.3 2.6 56 4.0 NNW 43 61 23 33 1014.0 1011.6 0.0
20/05:00am 11.2 0.9 2.5 55 4.2 NNW 46 61 25 33 1014.0 1011.6 0.0
20/04:50am 11.0 1.2 2.3 55 4.1 NNW 43 61 23 33 1014.0 1011.6 0.0
20/04:30am 11.2 1.1 1.7 52 4.5 NNW 44 59 24 32 1014.2 1011.8 0.0
20/04:00am 11.3 1.9 2.3 54 4.3 NNW 41 59 22 32 1014.3 1011.9 0.0
20/03:56am 11.3 1.9 2.1 53 4.4 NNW 41 59 22 32 1014.3 1011.9 0.0
20/03:30am 11.1 2.4 2.2 54 4.2 NNW 37 54 20 29 1014.9 1012.5 0.0
20/03:00am 11.2 2.9 2.2 54 4.3 NNW 35 50 19 27 1015.1 1012.7 0.0
20/02:30am 11.1 2.8 1.9 53 4.3 NNW 35 50 19 27 1015.5 1013.1 0.0
20/02:09am 11.1 3.1 1.6 52 4.5 NNW 33 52 18 28 1015.8 1013.5 0.0
20/02:00am 11.0 3.2 1.5 52 4.4 NNW 32 44 17 24 1015.9 1013.6 0.0
20/01:37am 11.0 2.9 1.3 51 4.5 NNW 33 52 18 28 1016.3 1014.0 0.0
20/01:30am 11.3 2.1 1.3 50 4.7 NNW 39 52 21 28 1016.2 1013.9 0.0
20/01:00am 11.3 2.9 1.3 50 4.7 NNW 35 50 19 27 1016.8 1014.5 0.0
20/12:30am 11.3 2.1 1.0 49 4.8 NNW 39 52 21 28 1017.0 1014.7 0.0
20/12:00am 11.2 3.1 1.2 50 4.7 NNW 33 48 18 26 1017.5 1015.2 0.0
 
Date/Time
EDT
Temp
°C
App
Temp
°C
Dew
Point
°C
Rel
Hum
%
Delta-T
°C
Wind Press
QNH
hPa
Press
MSL
hPa
Rain since
9am
mm
Dir  Spd
km/h
Gust
km/h
Spd
kts
Gust
kts
19/11:30pm 10.8 3.0 1.9 54 4.2 NNW 32 46 17 25 1018.0 1015.7 0.0
19/11:00pm 10.5 8.8 2.1 56 4.0 CALM 0 35 0 19 1018.6 1016.3 0.0
19/10:30pm 10.6 7.8 1.9 55 4.1 NNW 6 37 3 20 1018.9 1016.7 0.0
19/10:00pm 10.7 4.1 1.8 54 4.2 NNW 26 39 14 21 1019.0 1016.8 0.0
19/09:30pm 10.6 6.9 2.2 56 4.0 NNW 11 37 6 20 1019.3 1017.1 0.0
19/09:00pm 10.2 3.7 2.8 60 3.5 NNW 26 35 14 19 1019.4 1017.2 0.0
19/08:30pm 10.0 2.5 3.3 63 3.2 NNW 32 41 17 22 1019.2 1016.9 0.0
19/08:00pm 9.7 4.8 3.9 67 2.8 NNW 19 39 10 21 1018.9 1016.7 0.0
19/07:30pm 9.3 2.4 4.7 73 2.3 NNW 30 39 16 21 1018.6 1016.3 0.0
19/07:00pm 9.6 3.1 4.6 71 2.5 NNW 28 37 15 20 1018.6 1016.3 0.0
19/06:30pm 10.0 5.0 4.4 68 2.8 NNW 20 35 11 19 1018.3 1016.1 0.0
19/06:00pm 10.7 6.7 4.8 67 3.0 NNW 15 35 8 19 1018.3 1016.1 0.0
19/05:30pm 10.6 6.6 4.7 67 3.0 NNW 15 35 8 19 1018.4 1016.2 0.0
19/05:00pm 11.4 6.9 5.9 69 2.8 - 19 39 10 21 1018.4 1016.2 0.0
19/04:30pm 12.0 9.7 5.0 62 3.6 - 6 37 3 20 1018.2 1016.0 0.0
19/04:00pm 11.7 6.0 4.7 62 3.5 NNW 24 41 13 22 1018.1 1015.8 0.0
19/03:32pm 11.8 5.4 5.4 65 3.3 NNW 28 46 15 25 1018.2 1016.0 0.0
19/03:30pm 11.9 5.6 5.8 66 3.2 NNW 28 43 15 23 1018.3 1016.1 0.0
19/03:00pm 12.4 6.2 6.2 66 3.2 NNW 28 41 15 22 1018.7 1016.5 0.0
19/02:30pm 11.5 6.1 6.2 70 2.8 NNW 24 39 13 21 1018.8 1016.6 0.0
19/02:00pm 11.7 8.6 5.6 66 3.1 NNW 11 37 6 20 1019.2 1016.9 0.0
19/01:35pm 11.5 5.1 5.4 66 3.1 NNW 28 46 15 25 1019.4 1017.2 0.0
19/01:30pm 11.0 4.1 4.5 64 3.2 NNW 30 46 16 25 1019.4 1017.2 0.0
19/01:00pm 10.7 4.2 6.5 75 2.2 NNW 30 46 16 25 1019.5 1017.3 0.0
19/12:58pm 11.2 5.1 6.7 74 2.4 NNW 28 46 15 25 1019.5 1017.3 0.0
19/12:30pm 11.0 6.8 7.5 79 1.9 NNW 19 43 10 23 1019.5 1017.3 0.0
19/12:00pm 10.2 4.9 6.7 79 1.8 NNW 24 39 13 21 1019.9 1017.7 0.0
19/11:30am 9.5 3.0 6.6 82 1.5 NNW 30 41 16 22 1020.2 1018.1 0.0
19/11:00am 9.0 2.9 6.4 84 1.3 NNW 28 39 15 21 1020.3 1018.2 0.0
19/10:30am 8.7 4.2 6.8 88 1.0 NNW 20 41 11 22 1020.5 1018.3 0.0
19/10:00am 7.7 2.3 6.2 90 0.8 NNW 24 37 13 20 1020.6 1018.4 0.0
19/09:30am 6.8 3.5 6.5 98 0.2 NNW 13 33 7 18 1020.5 1018.3 0.0
19/09:00am 6.5 2.4 6.4 99 0.1 NNW 17 39 9 21 1020.6 1018.4 0.0
19/08:30am 5.8 1.0 5.7 99 0.0 NNW 20 37 11 20 1020.5 1018.3 0.0
19/08:00am 5.0 0.1 4.9 99 0.0 NNW 20 46 11 25 1020.1 1017.9 0.0
19/07:30am 4.5 -0.9 4.4 99 0.0 NW 22 46 12 25 1019.8 1017.6 0.0
19/07:02am 4.3 -3.1 4.2 99 0.0 NW 32 50 17 27 1019.3 1017.1 0.0
19/07:00am 4.3 -3.1 4.2 99 0.0 NW 32 46 17 25 1019.3 1017.1 0.0
19/06:33am 4.3 -2.3 4.2 99 0.0 NW 28 46 15 25 1019.0 1016.8 0.0
19/06:30am 4.3 -1.9 4.2 99 0.0 NW 26 46 14 25 1019.0 1016.8 0.0
19/06:00am 4.2 -4.1 4.1 99 0.0 NW 37 56 20 30 1018.7 1016.5 0.0
19/05:57am 4.3 -4.0 4.2 99 0.0 NW 37 56 20 30 1018.6 1016.3 0.0
19/05:30am 4.4 -3.5 4.3 99 0.0 NW 35 46 19 25 1018.4 1016.2 0.0
19/05:05am 4.6 -3.3 4.5 99 0.0 NW 35 56 19 30 1018.4 1016.2 0.0
19/05:00am 4.6 -3.3 4.5 99 0.0 NW 35 50 19 27 1018.3 1016.1 0.0
19/04:41am 5.0 -2.4 4.9 99 0.0 NW 33 52 18 28 1018.3 1016.1 0.0
19/04:30am 4.8 -3.4 4.7 99 0.0 NW 37 50 20 27 1018.2 1016.0 0.0
19/04:00am 5.2 -1.6 5.1 99 0.0 NW 30 48 16 26 1018.3 1016.1 0.0
19/03:30am 5.3 -1.1 5.2 99 0.0 NW 28 46 15 25 1018.4 1016.2 0.0
19/03:12am 5.4 -1.0 5.3 99 0.0 NW 28 46 15 25 1018.4 1016.2 0.0
19/03:00am 5.4 -0.2 5.3 99 0.0 NW 24 48 13 26 1018.4 1016.2 0.0
19/02:57am 5.4 -1.0 5.3 99 0.0 NW 28 48 15 26 1018.4 1016.2 0.0
19/02:30am 5.4 -0.2 5.3 99 0.0 NW 24 50 13 27 1018.4 1016.2 0.0
19/02:00am 5.6 -0.7 5.5 99 0.0 NNW 28 46 15 25 1018.9 1016.7 0.0
19/01:31am 5.6 -0.7 5.5 99 0.0 NNW 28 46 15 25 1019.2 1016.9 0.0
19/01:30am 5.5 -0.9 5.4 99 0.0 NNW 28 44 15 24 1019.2 1016.9 0.0
19/01:00am 5.6 -0.4 5.5 99 0.0 NNW 26 41 14 22 1019.5 1017.3 0.0
19/12:30am 5.6 0.4 5.5 99 0.0 NNW 22 43 12 23 1019.9 1017.7 0.0
19/12:00am 5.7 1.1 5.6 99 0.0 NNW 19 39 10 21 1020.1 1017.9 0.0
 
Date/Time
EDT
Temp
°C
App
Temp
°C
Dew
Point
°C
Rel
Hum
%
Delta-T
°C
Wind Press
QNH
hPa
Press
MSL
hPa
Rain since
9am
mm
Dir  Spd
km/h
Gust
km/h
Spd
kts
Gust
kts
18/11:39pm 5.7 -0.6 5.6 99 0.0 NNW 28 46 15 25 1020.0 1017.8 0.0
18/11:30pm 5.8 4.1 5.7 99 0.0 NNW 4 41 2 22 1020.0 1017.8 0.0
18/11:00pm 5.7 1.5 5.6 99 0.0 NNW 17 33 9 18 1020.1 1017.9 0.0
18/10:30pm 5.8 3.5 5.7 99 0.0 NNW 7 37 4 20 1020.2 1018.1 0.0
18/10:29pm 5.8 3.7 5.7 99 0.0 NNW 6 37 3 20 1020.2 1018.1 0.0
18/10:00pm 5.7 4.7 5.6 99 0.0 CALM 0 0 0 0 1020.2 1018.1 0.0
18/09:30pm 5.7 3.0 5.6 99 0.0 - 9 32 5 17 1020.2 1018.1 0.0
18/09:00pm 6.0 5.1 5.9 99 0.0 CALM 0 0 0 0 1020.0 1017.8 0.0
18/08:30pm 6.1 2.7 6.0 99 0.0 NNW 13 39 7 21 1019.5 1017.3 0.0
18/08:00pm 6.1 4.0 6.0 99 0.0 NNW 6 32 3 17 1019.3 1017.1 0.0
18/07:30pm 5.9 4.2 5.8 99 0.0 NNW 4 37 2 20 1019.0 1016.8 0.0
18/07:00pm 5.8 3.5 5.7 99 0.0 NNW 7 37 4 20 1018.7 1016.5 0.0
18/06:30pm 6.0 3.4 5.9 99 0.0 NNW 9 37 5 20 1018.3 1016.1 0.0
18/06:00pm 5.9 3.2 5.8 99 0.0 NNW 9 35 5 19 1018.3 1016.1 0.0
18/05:30pm 5.9 3.8 5.8 99 0.0 NW 6 33 3 18 1018.1 1015.8 0.0
18/05:00pm 5.8 -0.5 5.7 99 0.0 NNW 28 41 15 22 1017.7 1015.5 0.0
18/04:32pm 5.8 -0.5 5.7 99 0.0 NNW 28 48 15 26 1017.5 1015.2 0.0
18/04:30pm 5.8 -0.1 5.7 99 0.0 NNW 26 46 14 25 1017.6 1015.3 0.0
18/04:00pm 5.8 1.0 5.7 99 0.0 NNW 20 48 11 26 1017.5 1015.2 0.0
18/03:30pm 5.8 -0.5 5.7 99 0.0 NNW 28 48 15 26 1017.0 1014.7 0.0
18/03:02pm 5.7 -0.6 5.6 99 0.0 NNW 28 46 15 25 1017.3 1015.0 0.0
18/03:00pm 5.7 -0.2 5.6 99 0.0 NNW 26 46 14 25 1017.3 1015.0 0.0
18/02:30pm 5.7 -1.9 5.6 99 0.0 NNW 35 54 19 29 1017.3 1015.0 0.0
18/02:00pm 5.5 -1.8 5.4 99 0.0 NNW 33 59 18 32 1017.0 1014.7 0.0
18/01:30pm 5.4 -3.1 5.3 99 0.0 NNW 39 59 21 32 1017.1 1014.8 0.0
18/01:00pm 5.3 -1.9 5.2 99 0.0 NNW 32 50 17 27 1017.3 1015.0 0.0
18/12:30pm 5.2 -2.6 5.1 99 0.0 N 35 63 19 34 1016.8 1014.5 0.0
18/12:00pm 5.1 -3.4 5.0 99 0.0 NNW 39 59 21 32 1017.1 1014.8 0.0
18/11:30am 5.0 -3.9 4.9 99 0.0 NNW 41 63 22 34 1017.0 1014.7 0.0
18/11:00am 5.1 -2.7 5.0 99 0.0 NNW 35 56 19 30 1017.3 1015.0 0.0
18/10:30am 5.0 -3.2 4.9 99 0.0 NNW 37 61 20 33 1017.1 1014.8 0.0
18/10:00am 4.9 -4.1 4.8 99 0.0 NNW 41 59 22 32 1016.9 1014.6 0.0
18/09:50am 4.9 -3.7 4.8 99 0.0 NNW 39 57 21 31 1016.9 1014.6 0.0
18/09:30am 4.8 -4.6 4.7 99 0.0 NNW 43 59 23 32 1016.8 1014.5 0.0
18/09:01am 4.7 -3.2 4.6 99 0.0 NNW 35 54 19 29 1016.8 1014.5 0.0
18/09:00am 4.7 -3.2 4.6 99 0.0 NNW 35 52 19 28 1016.8 1014.5 0.0
18/08:30am 4.6 -3.3 4.5 99 0.0 NNW 35 54 19 29 1016.5 1014.2 0.0
18/08:00am 4.6 -3.3 4.5 99 0.0 NNW 35 54 19 29 1016.5 1014.2 0.0
18/07:32am 4.5 -4.1 4.4 99 0.0 NNW 39 57 21 31 1016.3 1014.0 0.0
18/07:30am 4.4 -4.3 4.3 99 0.0 NNW 39 56 21 30 1016.3 1014.0 0.0
18/07:00am 4.5 -4.1 4.4 99 0.0 NNW 39 57 21 31 1015.9 1013.6 0.0
18/06:30am 4.4 -3.9 4.3 99 0.0 NNW 37 59 20 32 1015.7 1013.4 0.0
18/06:00am 4.3 -3.2 4.2 99 0.0 NNW 33 54 18 29 1015.5 1013.1 0.0
18/05:30am 4.4 -3.5 4.3 99 0.0 NNW 35 57 19 31 1015.1 1012.7 0.0
18/05:06am 4.2 -4.1 4.1 99 0.0 NNW 37 56 20 30 1014.8 1012.4 0.0
18/05:00am 4.2 -4.5 4.1 99 0.0 NNW 39 54 21 29 1014.9 1012.5 0.0
18/04:42am 4.3 -3.1 4.2 99 0.0 NNW 32 50 17 27 1014.8 1012.4 0.0
18/04:30am 4.2 -3.7 4.1 99 0.0 NNW 35 50 19 27 1014.6 1012.3 0.0
18/04:04am 4.2 -3.2 4.1 99 0.0 NNW 32 50 17 27 1014.8 1012.4 0.0

Other Formats:

Comma delimited format used in spreadsheet applications
http://www.bom.gov.au/fwo/IDV60801/IDV60801.94903.axf

JavaScript Object Notation format (JSON) in row-major order
http://www.bom.gov.au/fwo/IDV60801/IDV60801.94903.json